San Antonio de los Cobres, Argentina
Current Conditions -  °F | °C
As of 3:00 PM on Friday 19 Dec 2014 (Local Time) from SASA Reporting Station
Scattered Clouds Scattered Clouds  
Wind Chill: 79°   Ceiling: Unl
Heat Index: 80°   Visibility: 6mi
Dew Point: 61°   Wind: 9mph
Humidity: 54%   Direction: 50°NE
Pressure: 29.83"   Gusts: NA
Location:  24.18°S, 66.35°W
Report Text: SASA 191800Z 05008KT 9999 SCT016 SCT03026/16 Q1010
Loading
Personal Weather Stations






























Interactive Weather Map New forecast layout! Learn more

10-Day Weather Forecast

Advertisements
Track Severe Weather on mobile